パース の空港の天気 - METARとTAF

パース空港 ( YPPH / PER ) - オーストラリア 西オーストラリア州パース
飛行場実況気象(Metar)
観測時間02/17 22:30 AWST (02/17 14:30 UTC)
風向・風速東南東 7m/s
視程10km以上
天気現象
なし
気温24℃
湿度27%
気圧1014hPa
METARYPPH 171430Z 11013KT CAVOK 24/04 Q1014 FM1600 09014G22KT CAVOK FM1600 MOD TURB BLW 3000FT
過去の天気等 Google飛行場航空写真 Wunderground天気予報

過去48時間のMETAR

飛行場予報(TAF)
発表時間: 2/17 20:54 AWST (2/17 12:54 UTC)
予報対象時間: 17日20時 AWST ~ 19日2時 AWST
風向・風速南 3m/s
視程10km以上
なし
18日0時 AWST から
風向・風速東 7m/s 瞬間風速 11m/s
視程10km以上
なし
18日11時 AWST から
風向・風速南東 4m/s
視程10km以上
なし
18日16時 AWST から
風向・風速南西 7m/s
視程10km以上
なし
18日20時 AWST から
風向・風速南 4m/s
視程10km以上
なし
TAF AMD YPPH 171254Z 1712/1818 19005KT CAVOK
FM171600 09014G22KT CAVOK
FM180300 14008KT CAVOK
FM180800 23014KT CAVOK
FM181200 18008KT CAVOK